createdAt,value
2023-04-25T00:00:40.408Z,978.00
2023-04-25T00:01:40.412Z,978.00
2023-04-25T00:02:40.514Z,977.99
2023-04-25T00:03:40.613Z,977.99
2023-04-25T00:04:40.819Z,977.99
2023-04-25T00:05:40.411Z,977.99
2023-04-25T00:06:40.351Z,977.99
2023-04-25T00:07:40.386Z,977.99
2023-04-25T00:08:40.310Z,977.98
2023-04-25T00:09:40.332Z,977.99
2023-04-25T00:10:40.321Z,977.99
2023-04-25T00:11:40.295Z,978.01
2023-04-25T00:12:40.288Z,978.01
2023-04-25T00:13:40.322Z,978.01
2023-04-25T00:14:40.267Z,978.02
2023-04-25T00:15:40.296Z,978.02
2023-04-25T00:16:40.252Z,978.03
2023-04-25T00:17:40.345Z,978.03
2023-04-25T00:18:40.261Z,978.02
2023-04-25T00:19:40.223Z,978.03
2023-04-25T00:20:40.205Z,978.03
2023-04-25T00:21:40.193Z,978.03
2023-04-25T00:22:40.176Z,978.03
2023-04-25T00:23:40.178Z,978.04
2023-04-25T00:24:40.164Z,978.03
2023-04-25T00:25:40.133Z,978.04
2023-04-25T00:26:40.138Z,978.03
2023-04-25T00:27:40.273Z,978.04
2023-04-25T00:28:40.115Z,978.03
2023-04-25T00:29:40.153Z,978.02
2023-04-25T00:30:40.091Z,978.02
2023-04-25T00:31:40.174Z,978.01
2023-04-25T00:32:40.143Z,977.98
2023-04-25T00:33:40.080Z,977.96
2023-04-25T00:34:40.066Z,977.94
2023-04-25T00:35:40.083Z,977.93
2023-04-25T00:36:40.052Z,977.91
2023-04-25T00:37:40.056Z,977.90
2023-04-25T00:38:40.016Z,977.89
2023-04-25T00:39:40.004Z,977.88
2023-04-25T00:40:39.984Z,977.87
2023-04-25T00:41:40.019Z,977.86
2023-04-25T00:42:39.978Z,977.85
2023-04-25T00:43:39.965Z,977.85
2023-04-25T00:44:39.950Z,977.85
2023-04-25T00:45:39.950Z,977.85
2023-04-25T00:46:40.009Z,977.85
2023-04-25T00:47:39.947Z,977.84
2023-04-25T00:48:39.995Z,977.84
2023-04-25T00:49:39.914Z,977.82
2023-04-25T00:50:39.907Z,977.82
2023-04-25T00:51:39.887Z,977.80
2023-04-25T00:52:39.908Z,977.78
2023-04-25T00:53:39.865Z,977.76
2023-04-25T00:54:39.902Z,977.74
2023-04-25T00:55:39.840Z,977.72
2023-04-25T00:56:39.823Z,977.71
2023-04-25T00:57:39.848Z,977.70
2023-04-25T00:58:39.835Z,977.70
2023-04-25T00:59:39.824Z,977.69
2023-04-25T01:00:39.825Z,977.68
2023-04-25T01:01:39.809Z,977.67
2023-04-25T01:02:39.905Z,977.67
2023-04-25T01:03:39.938Z,977.65
2023-04-25T01:04:39.748Z,977.66
2023-04-25T01:05:39.754Z,977.65
2023-04-25T01:06:39.755Z,977.65
2023-04-25T01:07:39.726Z,977.65
2023-04-25T01:08:39.749Z,977.64
2023-04-25T01:09:39.706Z,977.64
2023-04-25T01:10:39.684Z,977.65
2023-04-25T01:11:39.702Z,977.65
2023-04-25T01:12:39.676Z,977.65
2023-04-25T01:13:39.673Z,977.64
2023-04-25T01:14:39.695Z,977.64
2023-04-25T01:15:39.656Z,977.64
2023-04-25T01:16:39.738Z,977.65
2023-04-25T01:17:39.655Z,977.65
2023-04-25T01:18:39.619Z,977.65
2023-04-25T01:19:39.599Z,977.64
2023-04-25T01:20:39.627Z,977.64
2023-04-25T01:21:39.578Z,977.64
2023-04-25T01:22:39.562Z,977.63
2023-04-25T01:23:39.558Z,977.63
2023-04-25T01:24:39.533Z,977.63
2023-04-25T01:25:39.540Z,977.62
2023-04-25T01:26:39.557Z,977.61
2023-04-25T01:27:39.520Z,977.61
2023-04-25T01:28:39.528Z,977.61
2023-04-25T01:29:39.511Z,977.60
2023-04-25T01:30:39.494Z,977.61
2023-04-25T01:31:39.570Z,977.61
2023-04-25T01:32:39.736Z,977.62
2023-04-25T01:33:39.462Z,977.62
2023-04-25T01:34:39.453Z,977.62
2023-04-25T01:35:39.430Z,977.61
2023-04-25T01:36:39.453Z,977.61
2023-04-25T01:37:39.406Z,977.61
2023-04-25T01:38:39.434Z,977.60
2023-04-25T01:39:39.409Z,977.60
2023-04-25T01:40:39.389Z,977.60
2023-04-25T01:41:39.385Z,977.60
2023-04-25T01:42:39.368Z,977.60
2023-04-25T01:43:39.350Z,977.60
2023-04-25T01:44:39.365Z,977.60
2023-04-25T01:45:39.385Z,977.61
2023-04-25T01:46:39.403Z,977.62
2023-04-25T01:47:39.329Z,977.61
2023-04-25T01:48:39.314Z,977.62
2023-04-25T01:49:39.293Z,977.63
2023-04-25T01:50:39.319Z,977.61
2023-04-25T01:51:39.299Z,977.61
2023-04-25T01:52:39.297Z,977.62
2023-04-25T01:53:39.281Z,977.63
2023-04-25T01:54:39.263Z,977.62
2023-04-25T01:55:39.247Z,977.62
2023-04-25T01:56:39.261Z,977.62
2023-04-25T01:57:39.259Z,977.62
2023-04-25T01:58:39.600Z,977.62
2023-04-25T01:59:39.206Z,977.62
2023-04-25T02:00:39.208Z,977.62
2023-04-25T02:01:39.235Z,977.63
2023-04-25T02:02:39.316Z,977.62
2023-04-25T02:03:39.264Z,977.64
2023-04-25T02:04:39.230Z,977.64
2023-04-25T02:05:39.139Z,977.66
2023-04-25T02:06:39.136Z,977.68
2023-04-25T02:07:39.122Z,977.67
2023-04-25T02:08:39.109Z,977.69
2023-04-25T02:09:39.105Z,977.70
2023-04-25T02:10:39.095Z,977.69
2023-04-25T02:11:39.089Z,977.70
2023-04-25T02:12:39.091Z,977.71
2023-04-25T02:13:39.112Z,977.71
2023-04-25T02:14:39.065Z,977.70
2023-04-25T02:15:39.162Z,977.70
2023-04-25T02:16:39.082Z,977.69
2023-04-25T02:17:39.040Z,977.70
2023-04-25T02:18:39.012Z,977.69
2023-04-25T02:19:38.986Z,977.70
2023-04-25T02:20:38.992Z,977.70
2023-04-25T02:21:39.022Z,977.69
2023-04-25T02:22:38.966Z,977.69
2023-04-25T02:23:38.967Z,977.70
2023-04-25T02:24:38.948Z,977.70
2023-04-25T02:25:38.929Z,977.70
2023-04-25T02:26:38.951Z,977.70
2023-04-25T02:27:38.901Z,977.70
2023-04-25T02:28:38.919Z,977.69
2023-04-25T02:29:38.903Z,977.68
2023-04-25T02:30:38.902Z,977.67
2023-04-25T02:31:38.892Z,977.67
2023-04-25T02:32:38.920Z,977.66
2023-04-25T02:33:38.856Z,977.65
2023-04-25T02:34:38.838Z,977.65
2023-04-25T02:35:38.825Z,977.63
2023-04-25T02:36:38.829Z,977.63
2023-04-25T02:37:38.805Z,977.63
2023-04-25T02:38:38.819Z,977.62
2023-04-25T02:39:38.803Z,977.63
2023-04-25T02:40:38.821Z,977.63
2023-04-25T02:41:38.775Z,977.64
2023-04-25T02:42:38.778Z,977.65
2023-04-25T02:43:38.785Z,977.65
2023-04-25T02:44:38.759Z,977.64
2023-04-25T02:45:38.767Z,977.65
2023-04-25T02:46:39.968Z,977.65
2023-04-25T02:47:38.724Z,977.65
2023-04-25T02:48:38.706Z,977.62
2023-04-25T02:49:38.756Z,977.64
2023-04-25T02:50:38.682Z,977.62
2023-04-25T02:51:38.704Z,977.62
2023-04-25T02:52:38.659Z,977.61
2023-04-25T02:53:38.666Z,977.61
2023-04-25T02:54:38.743Z,977.60
2023-04-25T02:55:38.666Z,977.61
2023-04-25T02:56:38.618Z,977.60
2023-04-25T02:57:38.612Z,977.62
2023-04-25T02:58:38.597Z,977.59
2023-04-25T02:59:38.591Z,977.57
2023-04-25T03:00:38.622Z,977.55
2023-04-25T03:01:38.578Z,977.55
2023-04-25T03:02:38.646Z,977.57
2023-04-25T03:03:38.666Z,977.58
2023-04-25T03:04:38.627Z,977.59
2023-04-25T03:05:38.559Z,977.57
2023-04-25T03:06:38.527Z,977.57
2023-04-25T03:07:38.534Z,977.57
2023-04-25T03:08:38.535Z,977.58
2023-04-25T03:09:38.508Z,977.59
2023-04-25T03:10:38.479Z,977.60
2023-04-25T03:11:38.479Z,977.62
2023-04-25T03:12:38.459Z,977.62
2023-04-25T03:13:38.468Z,977.63
2023-04-25T03:14:38.456Z,977.63
2023-04-25T03:15:38.439Z,977.62
2023-04-25T03:16:38.451Z,977.62
2023-04-25T03:17:38.429Z,977.62
2023-04-25T03:18:38.441Z,977.61
2023-04-25T03:19:38.413Z,977.60
2023-04-25T03:20:38.367Z,977.60
2023-04-25T03:21:38.375Z,977.60
2023-04-25T03:22:38.357Z,977.61
2023-04-25T03:23:38.373Z,977.61
2023-04-25T03:24:38.345Z,977.61
2023-04-25T03:25:38.364Z,977.60
2023-04-25T03:26:38.310Z,977.61
2023-04-25T03:27:38.339Z,977.61
2023-04-25T03:28:38.305Z,977.61
2023-04-25T03:29:38.298Z,977.60
2023-04-25T03:30:38.297Z,977.61
2023-04-25T03:31:38.351Z,977.61
2023-04-25T03:32:38.285Z,977.61
2023-04-25T03:33:38.257Z,977.61
2023-04-25T03:34:38.243Z,977.62
2023-04-25T03:35:38.232Z,977.62
2023-04-25T03:36:39.867Z,977.63
2023-04-25T03:37:38.221Z,977.63
2023-04-25T03:38:38.203Z,977.63
2023-04-25T03:39:38.201Z,977.62
2023-04-25T03:40:38.172Z,977.63
2023-04-25T03:41:38.165Z,977.62
2023-04-25T03:42:38.181Z,977.63
2023-04-25T03:43:38.177Z,977.62
2023-04-25T03:44:38.140Z,977.62
2023-04-25T03:45:38.192Z,977.63
2023-04-25T03:46:38.119Z,977.65
2023-04-25T03:47:38.144Z,977.66
2023-04-25T03:48:38.101Z,977.66
2023-04-25T03:49:38.119Z,977.66
2023-04-25T03:50:38.067Z,977.66
2023-04-25T03:51:38.089Z,977.64
2023-04-25T03:52:38.061Z,977.66
2023-04-25T03:53:38.076Z,977.65
2023-04-25T03:54:38.089Z,977.66
2023-04-25T03:55:38.033Z,977.66
2023-04-25T03:56:38.028Z,977.67
2023-04-25T03:57:38.012Z,977.70
2023-04-25T03:58:38.011Z,977.71
2023-04-25T03:59:37.985Z,977.70
2023-04-25T04:00:38.006Z,977.71
2023-04-25T04:01:37.966Z,977.72
2023-04-25T04:02:38.188Z,977.72
2023-04-25T04:03:38.411Z,977.73
2023-04-25T04:04:38.051Z,977.73
2023-04-25T04:05:38.022Z,977.73
2023-04-25T04:06:37.934Z,977.75
2023-04-25T04:07:37.922Z,977.77
2023-04-25T04:08:37.939Z,977.77
2023-04-25T04:09:37.889Z,977.77
2023-04-25T04:10:37.899Z,977.75
2023-04-25T04:11:37.869Z,977.75
2023-04-25T04:12:37.870Z,977.75
2023-04-25T04:13:37.867Z,977.77
2023-04-25T04:14:37.836Z,977.77
2023-04-25T04:15:37.851Z,977.76
2023-04-25T04:16:38.074Z,977.76
2023-04-25T04:17:37.848Z,977.76
2023-04-25T04:18:37.787Z,977.75
2023-04-25T04:19:37.808Z,977.74
2023-04-25T04:20:37.798Z,977.74
2023-04-25T04:21:37.846Z,977.74
2023-04-25T04:22:37.761Z,977.77
2023-04-25T04:23:39.548Z,977.75
2023-04-25T04:24:37.728Z,977.73
2023-04-25T04:25:37.708Z,977.72
2023-04-25T04:26:37.730Z,977.74
2023-04-25T04:27:37.699Z,977.75
2023-04-25T04:28:37.680Z,977.76
2023-04-25T04:29:37.711Z,977.77
2023-04-25T04:30:37.657Z,977.77
2023-04-25T04:31:37.748Z,977.78
2023-04-25T04:32:37.740Z,977.77
2023-04-25T04:33:37.671Z,977.81
2023-04-25T04:34:37.645Z,977.84
2023-04-25T04:35:37.626Z,977.85
2023-04-25T04:36:37.623Z,977.84
2023-04-25T04:37:37.647Z,977.84
2023-04-25T04:38:38.720Z,977.84
2023-04-25T04:39:37.589Z,977.83
2023-04-25T04:40:37.576Z,977.84
2023-04-25T04:41:37.553Z,977.84
2023-04-25T04:42:37.548Z,977.84
2023-04-25T04:43:37.563Z,977.85
2023-04-25T04:44:37.515Z,977.84
2023-04-25T04:45:37.521Z,977.84
2023-04-25T04:46:37.512Z,977.83
2023-04-25T04:47:37.570Z,977.83
2023-04-25T04:48:37.518Z,977.84
2023-04-25T04:49:37.494Z,977.83
2023-04-25T04:50:37.484Z,977.84
2023-04-25T04:51:37.465Z,977.84
2023-04-25T04:52:37.456Z,977.86
2023-04-25T04:53:37.464Z,977.88
2023-04-25T04:54:37.435Z,977.91
2023-04-25T04:55:37.423Z,977.93
2023-04-25T04:56:37.405Z,977.94
2023-04-25T04:57:37.397Z,977.96
2023-04-25T04:58:37.378Z,977.96
2023-04-25T04:59:37.397Z,977.97
2023-04-25T05:00:37.392Z,977.98
2023-04-25T05:01:37.352Z,977.99
2023-04-25T05:02:37.538Z,977.99
2023-04-25T05:03:37.483Z,978.01
2023-04-25T05:04:37.485Z,978.02
2023-04-25T05:05:37.347Z,978.04
2023-04-25T05:06:37.329Z,978.05
2023-04-25T05:07:37.333Z,978.10
2023-04-25T05:08:37.313Z,978.09
2023-04-25T05:09:37.302Z,978.10
2023-04-25T05:10:37.751Z,978.09
2023-04-25T05:11:37.258Z,978.09
2023-04-25T05:12:37.463Z,978.07
2023-04-25T05:13:37.245Z,978.09
2023-04-25T05:14:37.242Z,978.09
2023-04-25T05:15:37.212Z,978.08
2023-04-25T05:16:37.306Z,978.07
2023-04-25T05:17:37.223Z,978.07
2023-04-25T05:18:37.196Z,978.07
2023-04-25T05:19:37.181Z,978.08
2023-04-25T05:20:37.181Z,978.08
2023-04-25T05:21:37.165Z,978.07
2023-04-25T05:22:37.203Z,978.07
2023-04-25T05:23:37.142Z,978.08
2023-04-25T05:24:37.116Z,978.06
2023-04-25T05:25:37.121Z,978.06
2023-04-25T05:26:37.117Z,978.07
2023-04-25T05:27:37.117Z,978.07
2023-04-25T05:28:37.136Z,978.07
2023-04-25T05:29:37.094Z,978.09
2023-04-25T05:30:37.079Z,978.09
2023-04-25T05:31:37.071Z,978.11
2023-04-25T05:32:37.076Z,978.10
2023-04-25T05:33:37.097Z,978.11
2023-04-25T05:34:37.046Z,978.11
2023-04-25T05:35:37.018Z,978.14
2023-04-25T05:36:36.994Z,978.17
2023-04-25T05:37:36.993Z,978.19
2023-04-25T05:38:36.979Z,978.20
2023-04-25T05:39:37.008Z,978.21
2023-04-25T05:40:36.955Z,978.21
2023-04-25T05:41:36.957Z,978.25
2023-04-25T05:42:36.938Z,978.21
2023-04-25T05:43:36.952Z,978.23
2023-04-25T05:44:36.935Z,978.27
2023-04-25T05:45:37.001Z,978.30
2023-04-25T05:46:36.978Z,978.31
2023-04-25T05:47:36.964Z,978.31
2023-04-25T05:48:36.884Z,978.31
2023-04-25T05:49:36.876Z,978.31
2023-04-25T05:50:36.912Z,978.28
2023-04-25T05:51:36.864Z,978.30
2023-04-25T05:52:36.836Z,978.31
2023-04-25T05:53:36.827Z,978.27
2023-04-25T05:54:36.818Z,978.31
2023-04-25T05:55:36.830Z,978.30
2023-04-25T05:56:36.833Z,978.31
2023-04-25T05:57:36.808Z,978.28
2023-04-25T05:58:36.772Z,978.32
2023-04-25T05:59:36.824Z,978.33
2023-04-25T06:00:36.747Z,978.35
2023-04-25T06:01:36.787Z,978.33
2023-04-25T06:02:36.865Z,978.33
2023-04-25T06:03:36.921Z,978.33
2023-04-25T06:04:36.908Z,978.36
2023-04-25T06:05:36.754Z,978.37
2023-04-25T06:06:36.693Z,978.35
2023-04-25T06:07:36.858Z,978.36
2023-04-25T06:08:36.688Z,978.33
2023-04-25T06:09:36.681Z,978.34
2023-04-25T06:10:36.662Z,978.39
2023-04-25T06:11:36.661Z,978.38
2023-04-25T06:12:36.647Z,978.40
2023-04-25T06:13:36.667Z,978.41
2023-04-25T06:14:36.623Z,978.43
2023-04-25T06:15:36.657Z,978.42
2023-04-25T06:16:36.619Z,978.41
2023-04-25T06:17:36.645Z,978.40
2023-04-25T06:18:36.594Z,978.39
2023-04-25T06:19:36.565Z,978.39
2023-04-25T06:20:36.541Z,978.41
2023-04-25T06:21:36.550Z,978.43
2023-04-25T06:22:36.528Z,978.47
2023-04-25T06:23:36.542Z,978.50
2023-04-25T06:24:36.558Z,978.46
2023-04-25T06:25:36.512Z,978.49
2023-04-25T06:26:36.483Z,978.53
2023-04-25T06:27:36.485Z,978.53
2023-04-25T06:28:36.472Z,978.55
2023-04-25T06:29:36.490Z,978.57
2023-04-25T06:30:36.442Z,978.57
2023-04-25T06:31:36.495Z,978.57
2023-04-25T06:32:36.452Z,978.60
2023-04-25T06:33:36.438Z,978.63
2023-04-25T06:34:36.419Z,978.66
2023-04-25T06:35:36.460Z,978.65
2023-04-25T06:36:36.399Z,978.66
2023-04-25T06:37:36.410Z,978.65
2023-04-25T06:38:36.378Z,978.64
2023-04-25T06:39:38.774Z,978.61
2023-04-25T06:40:36.363Z,978.61
2023-04-25T06:41:36.366Z,978.63
2023-04-25T06:42:36.317Z,978.59
2023-04-25T06:43:36.323Z,978.60
2023-04-25T06:44:36.315Z,978.62
2023-04-25T06:45:36.305Z,978.71
2023-04-25T06:46:36.327Z,978.69
2023-04-25T06:47:36.378Z,978.67
2023-04-25T06:48:36.279Z,978.67
2023-04-25T06:49:36.263Z,978.75
2023-04-25T06:50:36.251Z,978.69
2023-04-25T06:51:36.259Z,978.69
2023-04-25T06:52:36.241Z,978.70
2023-04-25T06:53:36.261Z,978.74
2023-04-25T06:54:36.270Z,978.73
2023-04-25T06:55:36.189Z,978.80
2023-04-25T06:56:36.191Z,978.78
2023-04-25T06:57:36.166Z,978.79
2023-04-25T06:58:36.163Z,978.76
2023-04-25T06:59:36.181Z,978.79
2023-04-25T07:00:36.158Z,978.82
2023-04-25T07:01:36.131Z,978.82
2023-04-25T07:02:36.241Z,978.87
2023-04-25T07:03:36.356Z,978.80
2023-04-25T07:04:36.404Z,978.82
2023-04-25T07:05:36.138Z,978.85
2023-04-25T07:06:36.097Z,978.87
2023-04-25T07:07:36.102Z,978.84
2023-04-25T07:08:36.076Z,978.86
2023-04-25T07:09:36.075Z,978.87
2023-04-25T07:10:36.066Z,978.88
2023-04-25T07:11:36.504Z,978.90
2023-04-25T07:12:36.041Z,978.91
2023-04-25T07:13:36.014Z,978.93
2023-04-25T07:14:36.013Z,978.94
2023-04-25T07:15:35.990Z,978.91
2023-04-25T07:16:36.037Z,978.90
2023-04-25T07:17:36.027Z,978.92
2023-04-25T07:18:36.004Z,978.92
2023-04-25T07:19:35.963Z,978.96
2023-04-25T07:20:35.962Z,978.97
2023-04-25T07:21:35.948Z,978.97
2023-04-25T07:22:35.979Z,978.99
2023-04-25T07:23:35.930Z,979.00
2023-04-25T07:24:35.934Z,979.02
2023-04-25T07:25:35.921Z,979.05
2023-04-25T07:26:35.900Z,979.05
2023-04-25T07:27:35.916Z,979.06
2023-04-25T07:28:35.904Z,979.07
2023-04-25T07:29:35.858Z,979.08
2023-04-25T07:30:35.888Z,979.08
2023-04-25T07:31:35.864Z,979.10
2023-04-25T07:32:36.016Z,979.08
2023-04-25T07:33:35.851Z,979.09
2023-04-25T07:34:35.824Z,979.09
2023-04-25T07:35:35.791Z,979.14
2023-04-25T07:36:35.787Z,979.14
2023-04-25T07:37:35.778Z,979.12
2023-04-25T07:38:35.804Z,979.13
2023-04-25T07:39:35.763Z,979.15
2023-04-25T07:40:35.757Z,979.14
2023-04-25T07:41:35.734Z,979.11
2023-04-25T07:42:35.744Z,979.12
2023-04-25T07:43:35.725Z,979.16
2023-04-25T07:44:35.738Z,979.16
2023-04-25T07:45:35.764Z,979.15
2023-04-25T07:46:35.765Z,979.14
2023-04-25T07:47:35.703Z,979.15
2023-04-25T07:48:35.687Z,979.18
2023-04-25T07:49:35.661Z,979.18
2023-04-25T07:50:35.691Z,979.16
2023-04-25T07:51:35.648Z,979.17
2023-04-25T07:52:35.640Z,979.17
2023-04-25T07:53:35.625Z,979.15
2023-04-25T07:54:35.611Z,979.15
2023-04-25T07:55:35.586Z,979.16
2023-04-25T07:56:49.189Z,979.17
2023-04-25T07:57:35.572Z,979.17
2023-04-25T07:58:35.567Z,979.20
2023-04-25T07:59:35.571Z,979.20
2023-04-25T08:00:35.559Z,979.22
2023-04-25T08:01:35.535Z,979.25
2023-04-25T08:02:35.655Z,979.27
2023-04-25T08:03:35.729Z,979.30
2023-04-25T08:04:35.578Z,979.30
2023-04-25T08:05:35.690Z,979.31
2023-04-25T08:06:35.868Z,979.33
2023-04-25T08:07:35.490Z,979.34
2023-04-25T08:08:35.503Z,979.32
2023-04-25T08:09:35.519Z,979.32
2023-04-25T08:10:35.460Z,979.33
2023-04-25T08:11:35.448Z,979.35
2023-04-25T08:12:35.437Z,979.36
2023-04-25T08:13:35.441Z,979.37
2023-04-25T08:14:35.414Z,979.41
2023-04-25T08:15:35.446Z,979.39
2023-04-25T08:16:35.421Z,979.40
2023-04-25T08:17:35.444Z,979.38
2023-04-25T08:18:35.373Z,979.42
2023-04-25T08:19:35.460Z,979.43
2023-04-25T08:20:35.376Z,979.44
2023-04-25T08:21:35.380Z,979.46
2023-04-25T08:22:35.329Z,979.47
2023-04-25T08:23:35.314Z,979.46
2023-04-25T08:24:36.572Z,979.47
2023-04-25T08:25:35.319Z,979.50
2023-04-25T08:26:35.345Z,979.57
2023-04-25T08:27:35.268Z,979.55
2023-04-25T08:28:35.278Z,979.55
2023-04-25T08:29:35.311Z,979.54
2023-04-25T08:30:35.343Z,979.55
2023-04-25T08:31:35.263Z,979.57
2023-04-25T08:32:35.359Z,979.57
2023-04-25T08:33:35.214Z,979.56
2023-04-25T08:34:35.211Z,979.57
2023-04-25T08:35:35.206Z,979.58
2023-04-25T08:36:39.684Z,979.57
2023-04-25T08:37:35.164Z,979.58
2023-04-25T08:38:35.174Z,979.61
2023-04-25T08:39:35.165Z,979.63
2023-04-25T08:40:35.225Z,979.62
2023-04-25T08:41:35.123Z,979.63
2023-04-25T08:42:35.126Z,979.63
2023-04-25T08:43:35.128Z,979.62
2023-04-25T08:44:35.097Z,979.63
2023-04-25T08:45:35.088Z,979.63
2023-04-25T08:46:35.165Z,979.64
2023-04-25T08:47:35.075Z,979.64
2023-04-25T08:48:35.068Z,979.66
2023-04-25T08:49:35.038Z,979.67
2023-04-25T08:50:35.055Z,979.70
2023-04-25T08:51:35.032Z,979.70
2023-04-25T08:52:35.057Z,979.68
2023-04-25T08:53:36.195Z,979.68
2023-04-25T08:54:37.297Z,979.70
2023-04-25T08:55:34.980Z,979.69
2023-04-25T08:56:35.030Z,979.67
2023-04-25T08:57:34.999Z,979.68
2023-04-25T08:58:34.957Z,979.66
2023-04-25T08:59:36.598Z,979.66
2023-04-25T09:00:34.933Z,979.67
2023-04-25T09:01:35.030Z,979.68
2023-04-25T09:02:34.991Z,979.68
2023-04-25T09:03:35.050Z,979.69
2023-04-25T09:04:34.917Z,979.69
2023-04-25T09:05:34.879Z,979.73
2023-04-25T09:06:34.886Z,979.75
2023-04-25T09:07:34.870Z,979.74
2023-04-25T09:08:34.879Z,979.77
2023-04-25T09:09:34.879Z,979.80
2023-04-25T09:10:34.843Z,979.80
2023-04-25T09:11:34.815Z,979.82
2023-04-25T09:12:34.802Z,979.83
2023-04-25T09:13:34.780Z,979.82
2023-04-25T09:14:34.800Z,979.85
2023-04-25T09:15:34.779Z,979.88
2023-04-25T09:16:37.086Z,979.89
2023-04-25T09:17:34.836Z,979.91
2023-04-25T09:18:34.753Z,979.90
2023-04-25T09:19:39.544Z,979.93
2023-04-25T09:20:37.663Z,979.91
2023-04-25T09:21:34.728Z,979.92
2023-04-25T09:22:34.726Z,979.94
2023-04-25T09:23:34.712Z,979.94
2023-04-25T09:24:34.693Z,979.94
2023-04-25T09:25:34.723Z,979.95
2023-04-25T09:26:34.680Z,979.95
2023-04-25T09:27:34.647Z,979.96
2023-04-25T09:28:34.647Z,979.97
2023-04-25T09:29:34.657Z,979.96
2023-04-25T09:30:34.617Z,979.97
2023-04-25T09:31:34.641Z,980.00
2023-04-25T09:32:34.810Z,980.00
2023-04-25T09:33:34.608Z,979.99
2023-04-25T09:34:34.576Z,979.98
2023-04-25T09:35:34.734Z,979.98
2023-04-25T09:36:34.770Z,979.98
2023-04-25T09:37:34.553Z,979.99
2023-04-25T09:38:34.561Z,980.06
2023-04-25T09:39:34.530Z,980.08
2023-04-25T09:40:34.550Z,980.06
2023-04-25T09:41:34.513Z,980.07
2023-04-25T09:42:34.509Z,980.10
2023-04-25T09:43:34.516Z,980.11
2023-04-25T09:44:34.501Z,980.14
2023-04-25T09:45:34.505Z,980.11
2023-04-25T09:46:34.666Z,980.12
2023-04-25T09:47:34.538Z,980.11
2023-04-25T09:48:34.455Z,980.13
2023-04-25T09:49:34.438Z,980.11
2023-04-25T09:50:34.429Z,980.12
2023-04-25T09:51:34.524Z,980.12
2023-04-25T09:52:34.399Z,980.13
2023-04-25T09:53:34.408Z,980.13
2023-04-25T09:54:34.372Z,980.10
2023-04-25T09:55:34.358Z,980.13
2023-04-25T09:56:34.352Z,980.09
2023-04-25T09:57:34.351Z,980.08
2023-04-25T09:58:34.332Z,980.07
2023-04-25T09:59:34.364Z,980.09
2023-04-25T10:00:34.341Z,980.07
2023-04-25T10:01:34.366Z,980.09
2023-04-25T10:02:34.363Z,980.10
2023-04-25T10:03:34.489Z,980.11
2023-04-25T10:04:34.406Z,980.12
2023-04-25T10:05:34.281Z,980.13
2023-04-25T10:06:34.270Z,980.13
2023-04-25T10:07:34.254Z,980.15
2023-04-25T10:08:34.235Z,980.18
2023-04-25T10:09:34.216Z,980.19
2023-04-25T10:10:34.238Z,980.18
2023-04-25T10:11:34.224Z,980.17
2023-04-25T10:12:34.296Z,980.17
2023-04-25T10:13:34.203Z,980.19
2023-04-25T10:14:34.184Z,980.18
2023-04-25T10:15:34.248Z,980.16
2023-04-25T10:16:34.154Z,980.17
2023-04-25T10:17:34.164Z,980.22
2023-04-25T10:18:34.158Z,980.15
2023-04-25T10:19:34.134Z,980.16
2023-04-25T10:20:34.119Z,980.22
2023-04-25T10:21:34.137Z,980.17
2023-04-25T10:22:34.101Z,980.20
2023-04-25T10:23:34.129Z,980.22
2023-04-25T10:24:34.081Z,980.19
2023-04-25T10:25:34.078Z,980.21
2023-04-25T10:26:34.478Z,980.24
2023-04-25T10:27:34.059Z,980.23
2023-04-25T10:28:34.064Z,980.22
2023-04-25T10:29:34.054Z,980.23
2023-04-25T10:30:34.038Z,980.26
2023-04-25T10:31:34.112Z,980.29
2023-04-25T10:32:34.057Z,980.28
2023-04-25T10:33:33.986Z,980.26
2023-04-25T10:34:33.970Z,980.26
2023-04-25T10:35:33.961Z,980.26
2023-04-25T10:36:33.964Z,980.27
2023-04-25T10:37:33.985Z,980.30
2023-04-25T10:38:33.941Z,980.30
2023-04-25T10:39:33.926Z,980.34
2023-04-25T10:40:33.969Z,980.37
2023-04-25T10:41:33.903Z,980.32
2023-04-25T10:42:33.928Z,980.34
2023-04-25T10:43:33.922Z,980.34
2023-04-25T10:44:33.890Z,980.31
2023-04-25T10:45:33.853Z,980.32
2023-04-25T10:46:33.863Z,980.33
2023-04-25T10:47:33.911Z,980.35
2023-04-25T10:48:33.850Z,980.36
2023-04-25T10:49:33.869Z,980.36
2023-04-25T10:50:33.846Z,980.38
2023-04-25T10:51:50.979Z,980.41
2023-04-25T10:52:33.802Z,980.44
2023-04-25T10:53:33.796Z,980.41
2023-04-25T10:54:33.786Z,980.40
2023-04-25T10:55:33.782Z,980.41
2023-04-25T10:56:33.750Z,980.41
2023-04-25T10:57:33.736Z,980.41
2023-04-25T10:58:33.744Z,980.44
2023-04-25T10:59:33.717Z,980.46
2023-04-25T11:00:42.964Z,980.46
2023-04-25T11:01:33.769Z,980.49
2023-04-25T11:02:33.960Z,980.50
2023-04-25T11:03:33.907Z,980.50
2023-04-25T11:04:33.892Z,980.50
2023-04-25T11:05:36.493Z,980.51
2023-04-25T11:14:42.865Z,980.49
2023-04-25T11:14:48.313Z,980.51
2023-04-25T11:15:51.839Z,980.51
2023-04-25T11:16:48.216Z,980.51
2023-04-25T11:17:48.330Z,980.54
2023-04-25T11:18:48.170Z,980.51
2023-04-25T11:19:48.159Z,980.51
2023-04-25T11:20:48.147Z,980.51
2023-04-25T11:21:48.153Z,980.50
2023-04-25T11:22:49.393Z,980.51
2023-04-25T11:23:48.316Z,980.50
2023-04-25T11:24:48.135Z,980.55
2023-04-25T11:25:48.114Z,980.55
2023-04-25T11:26:48.112Z,980.56
2023-04-25T11:27:48.081Z,980.57
2023-04-25T11:28:48.469Z,980.60
2023-04-25T11:29:48.048Z,980.60
2023-04-25T11:30:48.095Z,980.61
2023-04-25T11:31:48.094Z,980.62
2023-04-25T11:32:48.118Z,980.63
2023-04-25T11:33:48.318Z,980.61
2023-04-25T11:34:48.140Z,980.64
2023-04-25T11:35:48.092Z,980.64
2023-04-25T11:36:48.027Z,980.65
2023-04-25T11:37:48.023Z,980.65
2023-04-25T11:38:47.995Z,980.67
2023-04-25T11:39:47.970Z,980.70
2023-04-25T11:40:47.990Z,980.72
2023-04-25T11:41:47.953Z,980.71
2023-04-25T11:42:47.931Z,980.70
2023-04-25T11:43:47.935Z,980.67
2023-04-25T11:44:47.896Z,980.68
2023-04-25T11:45:47.996Z,980.70
2023-04-25T11:46:47.901Z,980.72
2023-04-25T11:47:48.020Z,980.64
2023-04-25T11:48:48.145Z,980.68
2023-04-25T11:49:47.882Z,980.71
2023-04-25T11:50:47.894Z,980.70
2023-04-25T11:51:47.918Z,980.72
2023-04-25T11:52:47.853Z,980.72
2023-04-25T11:53:47.840Z,980.73
2023-04-25T11:54:47.820Z,980.74
2023-04-25T11:55:47.869Z,980.73
2023-04-25T11:56:47.831Z,980.77
2023-04-25T11:57:47.770Z,980.78
2023-04-25T11:58:47.780Z,980.79
2023-04-25T11:59:47.762Z,980.84
2023-04-25T12:00:50.370Z,980.77
2023-04-25T12:01:47.747Z,980.79
2023-04-25T12:02:48.019Z,980.77
2023-04-25T12:03:48.135Z,980.87
2023-04-25T12:04:47.918Z,980.82
2023-04-25T12:05:47.944Z,980.86
2023-04-25T12:06:47.787Z,980.88
2023-04-25T12:07:47.667Z,980.82
2023-04-25T12:08:47.954Z,980.82
2023-04-25T12:09:47.643Z,980.89
2023-04-25T12:10:47.672Z,980.90
2023-04-25T12:11:47.623Z,980.90
2023-04-25T12:12:47.614Z,980.91
2023-04-25T12:13:47.609Z,980.91
2023-04-25T12:14:47.617Z,980.93
2023-04-25T12:15:47.657Z,980.91
2023-04-25T12:16:47.622Z,980.92
2023-04-25T12:17:47.630Z,980.91
2023-04-25T12:18:47.572Z,980.90
2023-04-25T12:19:47.557Z,980.90
2023-04-25T12:20:47.555Z,980.89
2023-04-25T12:21:57.220Z,980.91
2023-04-25T12:22:47.522Z,980.91
2023-04-25T12:23:47.520Z,980.91
2023-04-25T12:24:47.518Z,980.92
2023-04-25T12:25:47.485Z,980.92
2023-04-25T12:26:47.529Z,980.92
2023-04-25T12:27:47.507Z,980.95
2023-04-25T12:28:47.471Z,980.94
2023-04-25T12:30:47.441Z,980.91
2023-04-25T12:31:47.485Z,980.92
2023-04-25T12:32:47.943Z,980.91
2023-04-25T12:33:47.413Z,980.92
2023-04-25T12:34:47.388Z,980.92
2023-04-25T12:35:47.391Z,980.91
2023-04-25T12:36:47.381Z,980.86